Kansas City, Missouri
Traffic Map
Current Weather Conditions
Kansas City, Missouri
Clear
Clear
14°
Feels Like: 14°
Wind Chill: 14° Ceiling: Unl
Heat Index: 14° Visibility: 10mi
Dew Point: 10° Wind: 6mph
Humidity: 77% Direction: 30° (NNE)
Pressure: 30.23in Gusts: 0mph
Raw Report DataKMKC 160254Z 03005KT 10SM CLR 14/10 A3023 RMK AO2 SLP232 T01390100 51016
Traffic Incident Summary
Active as of:
Severity:
Category:
InformationThere was an issue retrieving the traffic information for this location. Please try a different location or try again shortly.
Advertisements
Track Severe Weather on mobile